Albatros — C6CN4 — position and weather

sailwx.info

Track history (hours):
 
Tides and Currents Weather Stations Pressure Air Temp Water Temp Dewpoint Dewpoint Depression Visibility Wind Speed Wind Dir Waves Ship Positions

Albatros

Last reported at 2017-May-29 11:30 UTC. Time now 2017-May-29 11:31 UTC.
Position N 47°44' W 003°21'.

Length 205.5 m; beam 25.2 m; draft 7.6 m.

Type: Passenger vessel. MMSI: 308784000.

Date/timePositionNaut miles runAvg speedWind from/ knotsBaromVisibWave heightAir tempDewpointWater temp
2017-May-29 11:30N 47°44' W 003°21'0 0.0
2017-May-29 11:00N 47°44' W 003°21'0 0.0
2017-May-29 10:30N 47°44' W 003°21'0 0.0
2017-May-29 10:00N 47°44' W 003°21'0 0.0
2017-May-29 09:30N 47°44' W 003°21'0 0.0
2017-May-29 09:00N 47°44' W 003°21'0 0.0
2017-May-29 08:30N 47°44' W 003°21'0 0.0
2017-May-29 08:00N 47°44' W 003°21'0 0.0
2017-May-29 07:30N 47°44' W 003°21'1 2.5
2017-May-29 07:00N 47°43' W 003°22'4 7.7
2017-May-29 06:30N 47°40' W 003°26'0 0.3
2017-May-29 06:00N 47°40' W 003°26'2 4.4
2017-May-29 05:30N 47°40' W 003°29'3 6.8
2017-May-29 05:00N 47°40' W 003°34'510.9
2017-May-29 04:30N 47°38' W 003°41'611.2
2017-May-29 04:00N 47°33' W 003°39'612.0
2017-May-29 03:30N 47°28' W 003°35'612.1
2017-May-29 03:00N 47°23' W 003°29'612.4
2017-May-29 02:30N 47°18' W 003°23'611.9
2017-May-29 02:00N 47°14' W 003°17'611.6
2017-May-29 01:30N 47°09' W 003°12'611.6
2017-May-29 01:00N 47°05' W 003°06'611.3
2017-May-29 00:30N 47°01' W 002°60'611.3
2017-May-29 00:00N 46°57' W 002°54'611.5
2017-May-28 23:30N 46°54' W 002°48'611.5
2017-May-28 23:00N 46°49' W 002°42'611.4
2017-May-28 22:28N 46°45' W 002°36'1111.5
2017-May-28 21:31N 46°37' W 002°25'011.1
2017-May-28 21:30N 46°37' W 002°25'611.3
2017-May-28 21:00N 46°33' W 002°19'611.6
2017-May-28 20:30N 46°28' W 002°13'611.6
2017-May-28 20:00N 46°24' W 002°08'611.7
2017-May-28 19:30N 46°20' W 002°02'611.6
2017-May-28 19:00N 46°16' W 001°56'611.6
2017-May-28 18:30N 46°12' W 001°50'511.0
2017-May-28 18:00N 46°09' W 001°44'611.9
2017-May-28 17:30N 46°08' W 001°35'612.6
2017-May-28 17:00N 46°07' W 001°26'611.9
2017-May-28 16:30N 46°06' W 001°17'4 7.8
2017-May-28 16:00N 46°10' W 001°15'0 0.3
2017-May-28 15:30N 46°10' W 001°14'0 0.0
2017-May-28 15:00N 46°10' W 001°14'0 0.0
2017-May-28 14:00N 46°10' W 001°14'0 0.0
2017-May-28 13:30N 46°10' W 001°14'0 0.0
2017-May-28 13:00N 46°10' W 001°14'0 0.0
2017-May-28 12:30N 46°10' W 001°14'0 0.0
2017-May-28 12:00N 46°10' W 001°14'0 0.0
2017-May-28 11:30N 46°10' W 001°14'0 0.0
2017-May-28 11:00N 46°10' W 001°14'0 0.0
2017-May-28 10:30N 46°10' W 001°14'0 0.0
2017-May-28 10:00N 46°10' W 001°14'0 0.0
2017-May-28 09:30N 46°10' W 001°14'0 0.0
2017-May-28 09:00N 46°10' W 001°14'0 0.0
2017-May-28 08:30N 46°10' W 001°14'0 0.0
2017-May-28 08:00N 46°10' W 001°14'0 0.0
2017-May-28 07:30N 46°10' W 001°14'0 0.0
2017-May-28 07:00N 46°10' W 001°14'0 0.0
2017-May-28 06:30N 46°10' W 001°14'0 0.2
2017-May-28 06:00N 46°10' W 001°14'4 7.9
2017-May-28 05:30N 46°06' W 001°16'4 9.0
2017-May-28 05:00N 46°06' W 001°23'510.7
2017-May-28 04:30N 46°05' W 001°30'612.2
2017-May-28 04:00N 45°59' W 001°34'612.2
2017-May-28 03:31N 45°53' W 001°37'714.5
2017-May-28 03:00N 45°47' W 001°42'8814.2
2017-May-27 20:49N 44°26' W 002°30'121 5.5
2017-May-26 22:55N 43°50' W 005°11'512.0
2017-May-26 22:30N 43°50' W 005°18'713.8
2017-May-26 22:00N 43°51' W 005°28'816.3
2017-May-26 21:30N 43°52' W 005°39'916.1
2017-May-26 20:58N 43°53' W 005°51'816.2
2017-May-26 20:30N 43°54' W 006°01'30413.4
2017-May-25 21:50N 39°42' W 009°51'1817.9
2017-May-25 20:49N 39°24' W 009°51'617.9
2017-May-25 20:31N 39°18' W 009°52'917.9
2017-May-25 20:01N 39°09' W 009°52'918.1
2017-May-25 19:30N 39°00' W 009°53'917.3
2017-May-25 19:00N 38°52' W 009°52'917.2
2017-May-25 18:30N 38°43' W 009°50'816.0
2017-May-25 18:00N 38°36' W 009°45'918.2
2017-May-25 17:30N 38°37' W 009°33'816.9
2017-May-25 17:00N 38°37' W 009°22'714.0
2017-May-25 16:30N 38°41' W 009°15'4 6.8
2017-May-25 15:59N 38°42' W 009°10'0 0.0
2017-May-25 15:29N 38°42' W 009°10'0 0.0
2017-May-25 14:41N 38°42' W 009°10'0 0.0
2017-May-25 14:26N 38°42' W 009°10'0 0.0
2017-May-25 13:29N 38°42' W 009°10'0 0.0
2017-May-25 12:56N 38°42' W 009°10'0 0.0
2017-May-25 12:29N 38°42' W 009°10'0 0.0
2017-May-25 11:53N 38°42' W 009°10'0 0.0
2017-May-25 11:29N 38°42' W 009°10'0 0.0
2017-May-25 10:59N 38°42' W 009°10'0 0.0
2017-May-25 10:23N 38°42' W 009°10'0 0.0
2017-May-25 09:56N 38°42' W 009°10'0 0.0
2017-May-25 09:20N 38°42' W 009°10'0 0.0
2017-May-25 08:50N 38°42' W 009°10'0 0.0
2017-May-25 08:20N 38°42' W 009°10'0 0.0
2017-May-25 07:59N 38°42' W 009°10'0 0.0
2017-May-25 07:26N 38°42' W 009°10'0 0.0
2017-May-25 06:59N 38°42' W 009°10'0 0.0
2017-May-25 06:26N 38°42' W 009°10'0 0.0
2017-May-25 06:00N 38°42' W 009°10'3 6.8
2017-May-25 05:30N 38°41' W 009°15'611.4
2017-May-25 05:00N 38°38' W 009°21'611.6
2017-May-25 04:30N 38°34' W 009°26'713.1
2017-May-25 04:00N 38°27' W 009°25'714.1
2017-May-25 03:30N 38°20' W 009°25'714.0
2017-May-25 03:00N 38°13' W 009°24'713.9
2017-May-25 02:30N 38°07' W 009°23'713.9
2017-May-25 02:00N 37°60' W 009°22'713.9
2017-May-25 01:30N 37°53' W 009°23'714.0
2017-May-25 01:01N 37°46' W 009°22'713.9
2017-May-25 00:31N 37°39' W 009°22'714.2
2017-May-25 00:01N 37°32' W 009°21'713.7
2017-May-24 23:30N 37°25' W 009°21'713.6
2017-May-24 23:00N 37°18' W 009°21'713.6
2017-May-24 22:30N 37°11' W 009°21'713.5
2017-May-24 22:00N 37°04' W 009°21'713.1
2017-May-24 21:30N 36°58' W 009°19'612.8
2017-May-24 21:00N 36°52' W 009°16'713.4
2017-May-24 20:30N 36°47' W 009°11'611.9
2017-May-24 20:00N 36°44' W 009°04'1014.6
2017-May-24 19:21N 36°47' W 008°52'916.2
2017-May-24 18:48N 36°53' W 008°45'516.3
2017-May-24 18:30N 36°57' W 008°41'816.4
2017-May-24 18:00N 37°03' W 008°35'5 9.9
2017-May-24 17:30N 37°07' W 008°32'0 0.4
2017-May-24 17:00N 37°08' W 008°32'0 0.0
2017-May-24 16:21N 37°08' W 008°32'0 0.0
2017-May-24 15:51N 37°08' W 008°32'0 0.0
2017-May-24 15:12N 37°08' W 008°32'0 0.0
2017-May-24 15:00N 37°08' W 008°32'0 0.0
2017-May-24 14:30N 37°08' W 008°32'0 0.0
2017-May-24 13:30N 37°08' W 008°32'0 0.0
2017-May-24 13:00N 37°08' W 008°32'0 0.0
2017-May-24 12:30N 37°08' W 008°32'0 0.0
2017-May-24 12:00N 37°08' W 008°32'0 0.0
2017-May-24 11:30N 37°08' W 008°32'0 0.0
2017-May-24 11:00N 37°08' W 008°32'0 0.0
2017-May-24 10:30N 37°08' W 008°32'0 0.0
2017-May-24 10:00N 37°08' W 008°32'0 0.0
2017-May-24 09:27N 37°08' W 008°32'0 0.0
2017-May-24 08:33N 37°08' W 008°32'0 0.0
2017-May-24 08:24N 37°08' W 008°32'0 0.0
2017-May-24 08:00N 37°08' W 008°32'0 0.0
2017-May-24 07:27N 37°08' W 008°32'0 0.0
2017-May-24 06:57N 37°08' W 008°32'0 0.0
2017-May-24 06:27N 37°08' W 008°32'0 0.0
2017-May-24 06:00N 37°08' W 008°32'0 0.2
2017-May-24 05:30N 37°08' W 008°32'2 4.7
2017-May-24 05:00N 37°05' W 008°32'510.6
2017-May-24 04:30N 37°02' W 008°27'612.6
2017-May-24 04:00N 36°59' W 008°20'713.7
2017-May-24 03:31N 36°55' W 008°13'713.8
2017-May-24 03:00N 36°52' W 008°05'612.5
2017-May-24 02:30N 36°49' W 007°58'612.7
2017-May-24 02:00N 36°45' W 007°52'113 5.5
2017-May-23 05:25N 35°54' W 005°47'1015.3
2017-May-23 04:48N 35°57' W 005°36'413.1
2017-May-23 04:31N 35°59' W 005°32'713.0
2017-May-23 04:01N 36°01' W 005°24'815.6
2017-May-23 03:30N 36°03' W 005°15'712.7
2017-May-23 02:59N 36°06' W 005°07'215 7.3
2017-May-21 21:24N 37°21' W 000°56'512.7
2017-May-21 21:00N 37°24' W 000°51'612.5
2017-May-21 20:30N 37°28' W 000°44'612.1
2017-May-21 19:59N 37°32' W 000°38'611.7
2017-May-21 19:30N 37°35' W 000°33'611.6
2017-May-21 19:00N 37°41' W 000°30'611.9
2017-May-21 18:30N 37°46' W 000°28'611.9
2017-May-21 18:00N 37°52' W 000°26'612.0
2017-May-21 17:30N 37°58' W 000°23'1011.9
2017-May-21 16:40N 38°07' W 000°19'812.5
2017-May-21 16:01N 38°15' W 000°15'013.3
2017-May-21 16:00N 38°15' W 000°15'712.9
2017-May-21 15:29N 38°22' W 000°13'10 1.0
2017-May-21 04:55N 38°31' W 000°08'910.9
2017-May-21 04:05N 38°32' E 000°04'113.0
2017-May-21 04:00N 38°33' E 000°05'713.9
2017-May-21 03:30N 38°36' E 000°13'6114.3
2017-May-20 23:13N 39°28' E 000°54'1514.4
2017-May-20 22:12N 39°41' E 001°03'414.6
2017-May-20 21:57N 39°44' E 001°05'613.9
2017-May-20 21:30N 39°50' E 001°09'816.9
2017-May-20 21:00N 39°57' E 001°14'916.9
2017-May-20 20:30N 40°05' E 001°19'816.8
2017-May-20 20:00N 40°12' E 001°25'816.5
2017-May-20 19:30N 40°19' E 001°30'816.5
2017-May-20 19:00N 40°26' E 001°35'816.4
2017-May-20 18:30N 40°34' E 001°40'816.5
2017-May-20 18:00N 40°41' E 001°45'816.6
2017-May-20 17:30N 40°48' E 001°50'816.8
2017-May-20 17:00N 40°56' E 001°56'816.9
2017-May-20 16:30N 41°03' E 002°01'917.0
2017-May-20 16:00N 41°11' E 002°06'  
Track history (hours):
 
Tides and Currents Weather Stations Pressure Air Temp Water Temp Dewpoint Dewpoint Depression Visibility Wind Speed Wind Dir Waves Ship Positions

Albatros

Last reported at 2017-May-29 11:30 UTC. Time now 2017-May-29 11:31 UTC.
Position N 47°44' W 003°21'.

Length 205.5 m; beam 25.2 m; draft 7.6 m.

Type: Passenger vessel. MMSI: 308784000.

Date/timePositionNaut miles runAvg speedWind from/ knotsBaromVisibWave heightAir tempDewpointWater temp
2017-May-29 11:30N 47°44' W 003°21'0 0.0
2017-May-29 11:00N 47°44' W 003°21'0 0.0
2017-May-29 10:30N 47°44' W 003°21'0 0.0
2017-May-29 10:00N 47°44' W 003°21'0 0.0
2017-May-29 09:30N 47°44' W 003°21'0 0.0
2017-May-29 09:00N 47°44' W 003°21'0 0.0
2017-May-29 08:30N 47°44' W 003°21'0 0.0
2017-May-29 08:00N 47°44' W 003°21'0 0.0
2017-May-29 07:30N 47°44' W 003°21'1 2.5
2017-May-29 07:00N 47°43' W 003°22'4 7.7
2017-May-29 06:30N 47°40' W 003°26'0 0.3
2017-May-29 06:00N 47°40' W 003°26'2 4.4
2017-May-29 05:30N 47°40' W 003°29'3 6.8
2017-May-29 05:00N 47°40' W 003°34'510.9
2017-May-29 04:30N 47°38' W 003°41'611.2
2017-May-29 04:00N 47°33' W 003°39'612.0
2017-May-29 03:30N 47°28' W 003°35'612.1
2017-May-29 03:00N 47°23' W 003°29'612.4
2017-May-29 02:30N 47°18' W 003°23'611.9
2017-May-29 02:00N 47°14' W 003°17'611.6
2017-May-29 01:30N 47°09' W 003°12'611.6
2017-May-29 01:00N 47°05' W 003°06'611.3
2017-May-29 00:30N 47°01' W 002°60'611.3
2017-May-29 00:00N 46°57' W 002°54'611.5
2017-May-28 23:30N 46°54' W 002°48'611.5
2017-May-28 23:00N 46°49' W 002°42'611.4
2017-May-28 22:28N 46°45' W 002°36'1111.5
2017-May-28 21:31N 46°37' W 002°25'011.1
2017-May-28 21:30N 46°37' W 002°25'611.3
2017-May-28 21:00N 46°33' W 002°19'611.6
2017-May-28 20:30N 46°28' W 002°13'611.6
2017-May-28 20:00N 46°24' W 002°08'611.7
2017-May-28 19:30N 46°20' W 002°02'611.6
2017-May-28 19:00N 46°16' W 001°56'611.6
2017-May-28 18:30N 46°12' W 001°50'511.0
2017-May-28 18:00N 46°09' W 001°44'611.9
2017-May-28 17:30N 46°08' W 001°35'612.6
2017-May-28 17:00N 46°07' W 001°26'611.9
2017-May-28 16:30N 46°06' W 001°17'4 7.8
2017-May-28 16:00N 46°10' W 001°15'0 0.3
2017-May-28 15:30N 46°10' W 001°14'0 0.0
2017-May-28 15:00N 46°10' W 001°14'0 0.0
2017-May-28 14:00N 46°10' W 001°14'0 0.0
2017-May-28 13:30N 46°10' W 001°14'0 0.0
2017-May-28 13:00N 46°10' W 001°14'0 0.0
2017-May-28 12:30N 46°10' W 001°14'0 0.0
2017-May-28 12:00N 46°10' W 001°14'0 0.0
2017-May-28 11:30N 46°10' W 001°14'0 0.0
2017-May-28 11:00N 46°10' W 001°14'0 0.0
2017-May-28 10:30N 46°10' W 001°14'0 0.0
2017-May-28 10:00N 46°10' W 001°14'0 0.0
2017-May-28 09:30N 46°10' W 001°14'0 0.0
2017-May-28 09:00N 46°10' W 001°14'0 0.0
2017-May-28 08:30N 46°10' W 001°14'0 0.0
2017-May-28 08:00N 46°10' W 001°14'0 0.0
2017-May-28 07:30N 46°10' W 001°14'0 0.0
2017-May-28 07:00N 46°10' W 001°14'0 0.0
2017-May-28 06:30N 46°10' W 001°14'0 0.2
2017-May-28 06:00N 46°10' W 001°14'4 7.9
2017-May-28 05:30N 46°06' W 001°16'4 9.0
2017-May-28 05:00N 46°06' W 001°23'510.7
2017-May-28 04:30N 46°05' W 001°30'612.2
2017-May-28 04:00N 45°59' W 001°34'612.2
2017-May-28 03:31N 45°53' W 001°37'714.5
2017-May-28 03:00N 45°47' W 001°42'8814.2
2017-May-27 20:49N 44°26' W 002°30'121 5.5
2017-May-26 22:55N 43°50' W 005°11'512.0
2017-May-26 22:30N 43°50' W 005°18'713.8
2017-May-26 22:00N 43°51' W 005°28'816.3
2017-May-26 21:30N 43°52' W 005°39'916.1
2017-May-26 20:58N 43°53' W 005°51'816.2
2017-May-26 20:30N 43°54' W 006°01'30413.4
2017-May-25 21:50N 39°42' W 009°51'1817.9
2017-May-25 20:49N 39°24' W 009°51'617.9
2017-May-25 20:31N 39°18' W 009°52'917.9
2017-May-25 20:01N 39°09' W 009°52'918.1
2017-May-25 19:30N 39°00' W 009°53'917.3
2017-May-25 19:00N 38°52' W 009°52'917.2
2017-May-25 18:30N 38°43' W 009°50'816.0
2017-May-25 18:00N 38°36' W 009°45'918.2
2017-May-25 17:30N 38°37' W 009°33'816.9
2017-May-25 17:00N 38°37' W 009°22'714.0
2017-May-25 16:30N 38°41' W 009°15'4 6.8
2017-May-25 15:59N 38°42' W 009°10'0 0.0
2017-May-25 15:29N 38°42' W 009°10'0 0.0
2017-May-25 14:41N 38°42' W 009°10'0 0.0
2017-May-25 14:26N 38°42' W 009°10'0 0.0
2017-May-25 13:29N 38°42' W 009°10'0 0.0
2017-May-25 12:56N 38°42' W 009°10'0 0.0
2017-May-25 12:29N 38°42' W 009°10'0 0.0
2017-May-25 11:53N 38°42' W 009°10'0 0.0
2017-May-25 11:29N 38°42' W 009°10'0 0.0
2017-May-25 10:59N 38°42' W 009°10'0 0.0
2017-May-25 10:23N 38°42' W 009°10'0 0.0
2017-May-25 09:56N 38°42' W 009°10'0 0.0
2017-May-25 09:20N 38°42' W 009°10'0 0.0
2017-May-25 08:50N 38°42' W 009°10'0 0.0
2017-May-25 08:20N 38°42' W 009°10'0 0.0
2017-May-25 07:59N 38°42' W 009°10'0 0.0
2017-May-25 07:26N 38°42' W 009°10'0 0.0
2017-May-25 06:59N 38°42' W 009°10'0 0.0
2017-May-25 06:26N 38°42' W 009°10'0 0.0
2017-May-25 06:00N 38°42' W 009°10'3 6.8
2017-May-25 05:30N 38°41' W 009°15'611.4
2017-May-25 05:00N 38°38' W 009°21'611.6
2017-May-25 04:30N 38°34' W 009°26'713.1
2017-May-25 04:00N 38°27' W 009°25'714.1
2017-May-25 03:30N 38°20' W 009°25'714.0
2017-May-25 03:00N 38°13' W 009°24'713.9
2017-May-25 02:30N 38°07' W 009°23'713.9
2017-May-25 02:00N 37°60' W 009°22'713.9
2017-May-25 01:30N 37°53' W 009°23'714.0
2017-May-25 01:01N 37°46' W 009°22'713.9
2017-May-25 00:31N 37°39' W 009°22'714.2
2017-May-25 00:01N 37°32' W 009°21'713.7
2017-May-24 23:30N 37°25' W 009°21'713.6
2017-May-24 23:00N 37°18' W 009°21'713.6
2017-May-24 22:30N 37°11' W 009°21'713.5
2017-May-24 22:00N 37°04' W 009°21'713.1
2017-May-24 21:30N 36°58' W 009°19'612.8
2017-May-24 21:00N 36°52' W 009°16'713.4
2017-May-24 20:30N 36°47' W 009°11'611.9
2017-May-24 20:00N 36°44' W 009°04'1014.6
2017-May-24 19:21N 36°47' W 008°52'916.2
2017-May-24 18:48N 36°53' W 008°45'516.3
2017-May-24 18:30N 36°57' W 008°41'816.4
2017-May-24 18:00N 37°03' W 008°35'5 9.9
2017-May-24 17:30N 37°07' W 008°32'0 0.4
2017-May-24 17:00N 37°08' W 008°32'0 0.0
2017-May-24 16:21N 37°08' W 008°32'0 0.0
2017-May-24 15:51N 37°08' W 008°32'0 0.0
2017-May-24 15:12N 37°08' W 008°32'0 0.0
2017-May-24 15:00N 37°08' W 008°32'0 0.0
2017-May-24 14:30N 37°08' W 008°32'0 0.0
2017-May-24 13:30N 37°08' W 008°32'0 0.0
2017-May-24 13:00N 37°08' W 008°32'0 0.0
2017-May-24 12:30N 37°08' W 008°32'0 0.0
2017-May-24 12:00N 37°08' W 008°32'0 0.0
2017-May-24 11:30N 37°08' W 008°32'0 0.0
2017-May-24 11:00N 37°08' W 008°32'0 0.0
2017-May-24 10:30N 37°08' W 008°32'0 0.0
2017-May-24 10:00N 37°08' W 008°32'0 0.0
2017-May-24 09:27N 37°08' W 008°32'0 0.0
2017-May-24 08:33N 37°08' W 008°32'0 0.0
2017-May-24 08:24N 37°08' W 008°32'0 0.0
2017-May-24 08:00N 37°08' W 008°32'0 0.0
2017-May-24 07:27N 37°08' W 008°32'0 0.0
2017-May-24 06:57N 37°08' W 008°32'0 0.0
2017-May-24 06:27N 37°08' W 008°32'0 0.0
2017-May-24 06:00N 37°08' W 008°32'0 0.2
2017-May-24 05:30N 37°08' W 008°32'2 4.7
2017-May-24 05:00N 37°05' W 008°32'510.6
2017-May-24 04:30N 37°02' W 008°27'612.6
2017-May-24 04:00N 36°59' W 008°20'713.7
2017-May-24 03:31N 36°55' W 008°13'713.8
2017-May-24 03:00N 36°52' W 008°05'612.5
2017-May-24 02:30N 36°49' W 007°58'612.7
2017-May-24 02:00N 36°45' W 007°52'113 5.5
2017-May-23 05:25N 35°54' W 005°47'1015.3
2017-May-23 04:48N 35°57' W 005°36'413.1
2017-May-23 04:31N 35°59' W 005°32'713.0
2017-May-23 04:01N 36°01' W 005°24'815.6
2017-May-23 03:30N 36°03' W 005°15'712.7
2017-May-23 02:59N 36°06' W 005°07'215 7.3
2017-May-21 21:24N 37°21' W 000°56'512.7
2017-May-21 21:00N 37°24' W 000°51'612.5
2017-May-21 20:30N 37°28' W 000°44'612.1
2017-May-21 19:59N 37°32' W 000°38'611.7
2017-May-21 19:30N 37°35' W 000°33'611.6
2017-May-21 19:00N 37°41' W 000°30'611.9
2017-May-21 18:30N 37°46' W 000°28'611.9
2017-May-21 18:00N 37°52' W 000°26'612.0
2017-May-21 17:30N 37°58' W 000°23'1011.9
2017-May-21 16:40N 38°07' W 000°19'812.5
2017-May-21 16:01N 38°15' W 000°15'013.3
2017-May-21 16:00N 38°15' W 000°15'712.9
2017-May-21 15:29N 38°22' W 000°13'10 1.0
2017-May-21 04:55N 38°31' W 000°08'910.9
2017-May-21 04:05N 38°32' E 000°04'113.0
2017-May-21 04:00N 38°33' E 000°05'713.9
2017-May-21 03:30N 38°36' E 000°13'6114.3
2017-May-20 23:13N 39°28' E 000°54'1514.4
2017-May-20 22:12N 39°41' E 001°03'414.6
2017-May-20 21:57N 39°44' E 001°05'613.9
2017-May-20 21:30N 39°50' E 001°09'816.9
2017-May-20 21:00N 39°57' E 001°14'916.9
2017-May-20 20:30N 40°05' E 001°19'816.8
2017-May-20 20:00N 40°12' E 001°25'816.5
2017-May-20 19:30N 40°19' E 001°30'816.5
2017-May-20 19:00N 40°26' E 001°35'816.4
2017-May-20 18:30N 40°34' E 001°40'816.5
2017-May-20 18:00N 40°41' E 001°45'816.6
2017-May-20 17:30N 40°48' E 001°50'816.8
2017-May-20 17:00N 40°56' E 001°56'816.9
2017-May-20 16:30N 41°03' E 002°01'917.0
2017-May-20 16:00N 41°11' E 002°06'  

Dump ship's entire track history